地図

経路データ

SID SEASON NUMBER BASIN SUBBASIN NAME ISO_TIME NATURE LAT LON WMO_WIND WMO_PRES WMO_AGENCY TRACK_TYPE DIST2LAND LANDFALL IFLAG USA_AGENCY USA_ATCF_ID USA_LAT USA_LON USA_RECORD USA_STATUS USA_WIND USA_PRES USA_SSHS USA_R34_NE USA_R34_SE USA_R34_SW USA_R34_NW USA_R50_NE USA_R50_SE USA_R50_SW USA_R50_NW USA_R64_NE USA_R64_SE USA_R64_SW USA_R64_NW USA_POCI USA_ROCI USA_RMW USA_EYE TOKYO_LAT TOKYO_LON TOKYO_GRADE TOKYO_WIND TOKYO_PRES TOKYO_R50_DIR TOKYO_R50_LONG TOKYO_R50_SHORT TOKYO_R30_DIR TOKYO_R30_LONG TOKYO_R30_SHORT TOKYO_LAND CMA_LAT CMA_LON CMA_CAT CMA_WIND CMA_PRES HKO_LAT HKO_LON HKO_CAT HKO_WIND HKO_PRES NEWDELHI_LAT NEWDELHI_LON NEWDELHI_GRADE NEWDELHI_WIND NEWDELHI_PRES NEWDELHI_CI NEWDELHI_DP NEWDELHI_POCI REUNION_LAT REUNION_LON REUNION_TYPE REUNION_WIND REUNION_PRES REUNION_TNUM REUNION_CI REUNION_RMW REUNION_R34_NE REUNION_R34_SE REUNION_R34_SW REUNION_R34_NW REUNION_R50_NE REUNION_R50_SE REUNION_R50_SW REUNION_R50_NW REUNION_R64_NE REUNION_R64_SE REUNION_R64_SW REUNION_R64_NW BOM_LAT BOM_LON BOM_TYPE BOM_WIND BOM_PRES BOM_TNUM BOM_CI BOM_RMW BOM_R34_NE BOM_R34_SE BOM_R34_SW BOM_R34_NW BOM_R50_NE BOM_R50_SE BOM_R50_SW BOM_R50_NW BOM_R64_NE BOM_R64_SE BOM_R64_SW BOM_R64_NW BOM_ROCI BOM_POCI BOM_EYE BOM_POS_METHOD BOM_PRES_METHOD NADI_LAT NADI_LON NADI_CAT NADI_WIND NADI_PRES WELLINGTON_LAT WELLINGTON_LON WELLINGTON_WIND WELLINGTON_PRES DS824_LAT DS824_LON DS824_STAGE DS824_WIND DS824_PRES TD9636_LAT TD9636_LON TD9636_STAGE TD9636_WIND TD9636_PRES TD9635_LAT TD9635_LON TD9635_WIND TD9635_PRES TD9635_ROCI NEUMANN_LAT NEUMANN_LON NEUMANN_CLASS NEUMANN_WIND NEUMANN_PRES MLC_LAT MLC_LON MLC_CLASS MLC_WIND MLC_PRES USA_GUST BOM_GUST BOM_GUST_PER REUNION_GUST REUNION_GUST_PER USA_SEAHGT USA_SEARAD_NE USA_SEARAD_SE USA_SEARAD_SW USA_SEARAD_NW STORM_SPEED STORM_DIR
1919207N17113 1919 17 WP MM NOT_NAMED 1919-07-25 22:00:00 NR 16.8000 112.800 main 330 315 __________O___ -1 16.8000 112.800 4 3 322
1919207N17113 1919 17 WP MM NOT_NAMED 1919-07-26 00:00:00 NR 16.8699 112.748 main 315 307 __________P___ -1 16.8699 112.748 4 3 325
1919207N17113 1919 17 WP MM NOT_NAMED 1919-07-26 03:00:00 NR 16.9736 112.671 main 307 292 __________P___ -1 16.9736 112.671 4 3 324
1919207N17113 1919 17 WP MM NOT_NAMED 1919-07-26 06:00:00 NR 17.0741 112.595 main 292 277 __________P___ -1 17.0741 112.595 4 2 323
1919207N17113 1919 17 WP MM NOT_NAMED 1919-07-26 09:00:00 NR 17.1696 112.523 main 277 277 __________P___ -1 17.1696 112.523 4 2 325
1919207N17113 1919 17 WP MM NOT_NAMED 1919-07-26 10:00:00 NR 17.2000 112.500 main 277 269 __________O___ -1 17.2000 112.500 4 2 322
1919207N17113 1919 17 WP MM NOT_NAMED 1919-07-26 12:00:00 NR 17.2583 112.455 main 269 261 __________P___ -1 17.2583 112.455 4 2 324
1919207N17113 1919 17 WP MM NOT_NAMED 1919-07-26 15:00:00 NR 17.3395 112.388 main 261 246 __________P___ -1 17.3395 112.388 4 2 320
1919207N17113 1919 17 WP MM NOT_NAMED 1919-07-26 18:00:00 NR 17.4133 112.316 main 246 231 __________P___ -1 17.4133 112.316 4 2 313
1919207N17113 1919 17 WP MM NOT_NAMED 1919-07-26 21:00:00 NR 17.4796 112.232 main 231 231 __________P___ -1 17.4796 112.232 4 2 307
1919207N17113 1919 17 WP MM NOT_NAMED 1919-07-26 22:00:00 NR 17.5000 112.200 main 231 223 __________O___ -1 17.5000 112.200 4 2 299
1919207N17113 1919 17 WP MM NOT_NAMED 1919-07-27 00:00:00 NR 17.5364 112.125 main 223 207 __________P___ -1 17.5364 112.125 4 2 294
1919207N17113 1919 17 WP MM NOT_NAMED 1919-07-27 03:00:00 NR 17.5847 112.001 main 207 199 __________P___ -1 17.5847 112.001 4 3 291
1919207N17113 1919 17 WP MM NOT_NAMED 1919-07-27 06:00:00 NR 17.6309 111.870 main 199 176 __________P___ -1 17.6309 111.870 4 3 291
1919207N17113 1919 17 WP MM NOT_NAMED 1919-07-27 09:00:00 NR 17.6812 111.741 main 176 176 __________P___ -1 17.6812 111.741 4 3 293
1919207N17113 1919 17 WP MM NOT_NAMED 1919-07-27 10:00:00 NR 17.7000 111.700 main 176 169 __________O___ -1 17.7000 111.700 4 2 300
1919207N17113 1919 17 WP MM NOT_NAMED 1919-07-27 12:00:00 NR 17.7443 111.630 main 169 153 __________P___ -1 17.7443 111.630 4 2 306
1919207N17113 1919 17 WP MM NOT_NAMED 1919-07-27 15:00:00 NR 17.8170 111.532 main 153 138 __________P___ -1 17.8170 111.532 4 2 309
1919207N17113 1919 17 WP MM NOT_NAMED 1919-07-27 18:00:00 NR 17.8945 111.436 main 138 123 __________P___ -1 17.8945 111.436 4 2 310
1919207N17113 1919 17 WP MM NOT_NAMED 1919-07-27 21:00:00 NR 17.9738 111.335 main 123 123 __________P___ -1 17.9738 111.335 4 3 309
1919207N17113 1919 17 WP MM NOT_NAMED 1919-07-27 22:00:00 NR 18.0000 111.300 main 123 107 __________O___ -1 18.0000 111.300 4 3 307
1919207N17113 1919 17 WP MM NOT_NAMED 1919-07-28 00:00:00 NR 18.0526 111.222 main 107 99 __________P___ -1 18.0526 111.222 4 3 305
1919207N17113 1919 17 WP MM NOT_NAMED 1919-07-28 03:00:00 NR 18.1316 111.100 main 99 84 __________P___ -1 18.1316 111.100 4 3 303
1919207N17113 1919 17 WP MM NOT_NAMED 1919-07-28 06:00:00 NR 18.2079 110.972 main 84 61 __________P___ -1 18.2079 110.972 4 3 301
1919207N17113 1919 17 WP MM NOT_NAMED 1919-07-28 09:00:00 NR 18.2783 110.843 main 61 61 __________P___ -1 18.2783 110.843 4 3 300
1919207N17113 1919 17 WP MM NOT_NAMED 1919-07-28 10:00:00 NR 18.3000 110.800 main 61 54 __________O___ -1 18.3000 110.800 4 3 298
1919207N17113 1919 17 WP MM NOT_NAMED 1919-07-28 12:00:00 NR 18.3416 110.719 main 54 39 __________P___ -1 18.3416 110.719 4 3 297
1919207N17113 1919 17 WP MM NOT_NAMED 1919-07-28 15:00:00 NR 18.3979 110.598 main 39 35 __________P___ -1 18.3979 110.598 4 3 294
1919207N17113 1919 17 WP MM NOT_NAMED 1919-07-28 18:00:00 NR 18.4466 110.475 main 35 15 __________P___ -1 18.4466 110.475 4 3 291
1919207N17113 1919 17 WP MM NOT_NAMED 1919-07-28 21:00:00 NR 18.4879 110.345 main 15 15 __________P___ -1 18.4879 110.345 4 3 288
1919207N17113 1919 17 WP MM NOT_NAMED 1919-07-28 22:00:00 NR 18.5000 110.300 main 15 10 __________O___ -1 18.5000 110.300 4 3 283
1919207N17113 1919 17 WP MM NOT_NAMED 1919-07-29 00:00:00 NR 18.5198 110.203 main 10 0 __________P___ -1 18.5198 110.203 4 3 280
1919207N17113 1919 17 WP MM NOT_NAMED 1919-07-29 03:00:00 NR 18.5430 110.051 main 0 0 __________P___ -1 18.5430 110.051 4 3 279
1919207N17113 1919 17 WP MM NOT_NAMED 1919-07-29 06:00:00 NR 18.5642 109.897 main 0 0 __________P___ -1 18.5642 109.897 4 3 279
1919207N17113 1919 17 WP MM NOT_NAMED 1919-07-29 09:00:00 NR 18.5895 109.748 main 0 0 __________P___ -1 18.5895 109.748 4 3 281
1919207N17113 1919 17 WP MM NOT_NAMED 1919-07-29 10:00:00 NR 18.6000 109.700 main 0 0 __________O___ -1 18.6000 109.700 4 3 285
1919207N17113 1919 17 WP MM NOT_NAMED 1919-07-29 12:00:00 NR 18.6248 109.608 main 0 0 __________P___ -1 18.6248 109.608 4 3 289
1919207N17113 1919 17 WP MM NOT_NAMED 1919-07-29 15:00:00 NR 18.6705 109.479 main 0 0 __________P___ -1 18.6705 109.479 4 3 293
1919207N17113 1919 17 WP MM NOT_NAMED 1919-07-29 18:00:00 NR 18.7235 109.357 main 0 0 __________P___ -1 18.7235 109.357 4 3 296
1919207N17113 1919 17 WP MM NOT_NAMED 1919-07-29 21:00:00 NR 18.7806 109.239 main 0 0 __________P___ -1 18.7806 109.239 4 3 297
1919207N17113 1919 17 WP MM NOT_NAMED 1919-07-29 22:00:00 NR 18.8000 109.200 main 0 __________O___ -1 18.8000 109.200 7 3 299

デジタル台風データ・検索

IBTrACS Databaseについて

本データベースは、米国NOAAが公開する1842年以降の世界の熱帯低気圧のベストトラックデータアーカイブInternational Best Track Archive for Climate Stewardship (IBTrACS)を、ウェブで閲覧しやすい形式に変換したものです。

最終更新日:2021-10-08